Latest Coastal Weather Observations for Bundaberg

IDQ60701

Issued at 4:12 am EST Wednesday 1 April 2015 (issued every 10 minutes, with the page automatically refreshed every 10 minutes)

About coastal observations | Map of coastal stations | Coastal observations for QLD | Marine services | Other Formats
Station Details ID: 039128 Name: BUNDABERG AERO Lat: -24.91 Lon: 152.32 Height: 30.82 m
Data from the previous 72 hours. | See also: Recent months at Bundaberg
Date/Time
EST
Temp

°C
Wind Pressure Rain
since 9am
mm
Weather Cloud Vis
km
Sea
Height
m
Swell
Dir
 
Speed
knots
Gust
knots
hPa Trend Height
m
Period
s
Dir
01/04:00am 20.0 S 7 10 1016.7 - 1.0 - Partly cloudy 10 - - - -
01/03:30am 20.1 S 6 8 1017.0 - 1.0 - Partly cloudy 10 - - - -
01/03:00am 20.1 SSE 6 8 1017.1 - 1.0 - Mostly cloudy 10 - - - -
01/02:30am 20.2 SSE 5 7 1017.4 - 1.0 - - 10 - - - -
01/02:00am 20.2 S 6 9 1017.4 - 1.0 - Partly cloudy 10 - - - -
01/01:30am 20.5 S 6 8 1018.0 - 1.0 - - 10 - - - -
01/01:00am 20.6 S 5 7 1018.4 - 1.0 - Partly cloudy 10 - - - -
01/12:30am 20.6 SSE 7 9 1018.2 - 1.0 - - 10 - - - -
 
Date/Time
EST
Temp

°C
Wind Pressure Rain
since 9am
mm
Weather Cloud Vis
km
Sea
Height
m
Swell
Dir
 
Speed
knots
Gust
knots
hPa Trend Height
m
Period
s
Dir
31/11:30pm 20.8 S 5 7 1019.5 - 1.0 - Partly cloudy 10 - - - -
31/11:00pm 20.9 SSE 6 8 1019.5 - 0.8 - Cloudy 10 - - - -
31/10:30pm 21.3 S 6 8 1020.1 - 0.4 - - 10 - - - -
31/10:00pm 21.5 SSW 6 8 1020.7 - 0.4 - Partly cloudy 10 - - - -
31/09:30pm 21.5 S 6 9 1020.4 - 0.4 - Partly cloudy 10 - - - -
31/09:00pm 21.6 SSE 6 7 1020.3 - 0.4 Drizzle Cloudy 10 - - - -
31/08:30pm 21.5 ESE 7 9 1020.1 - 0.4 - Partly cloudy 7 - - - -
31/08:00pm 21.9 S 5 6 1020.4 - 0.0 - Partly cloudy 10 - - - -
31/07:30pm 22.0 SSW 5 7 1020.3 - 0.0 - Partly cloudy 10 - - - -
31/07:00pm 22.2 E 9 12 1019.3 - 0.0 - Cloudy 10 - - - -
31/06:30pm 22.2 SE 10 18 1019.0 - 0.0 - Partly cloudy 10 - - - -
31/06:00pm 22.4 SSE 6 9 1018.7 - 0.0 Showers Cloudy 10 - - - -
31/05:30pm 23.3 SSE 13 18 1018.5 - 0.0 - Partly cloudy 10 - - - -
31/05:00pm 24.7 SSE 7 11 1017.9 - 0.0 - Partly cloudy 10 - - - -
31/04:30pm 25.1 SSE 9 14 1018.0 - 0.0 - Cloudy 10 - - - -
31/04:00pm 26.1 ESE 13 16 1017.7 - 0.0 - Partly cloudy 10 - - - -
31/03:30pm 26.4 SE 12 16 1017.7 - 0.0 - Partly cloudy 10 - - - -
31/03:00pm 27.2 ESE 12 17 1017.8 - 0.0 - - 10 - - - -
31/02:30pm 28.3 ESE 12 16 1017.8 - 0.0 - - 10 - - - -
31/02:00pm 27.2 ESE 11 17 1018.2 - 0.0 - Partly cloudy 10 - - - -
31/01:30pm 27.7 ESE 10 15 1018.8 - 0.0 - Partly cloudy 10 - - - -
31/01:00pm 28.2 ESE 11 16 1018.9 - 0.0 - Partly cloudy 10 - - - -
31/12:30pm 28.8 ESE 13 19 1019.3 - 0.0 - Partly cloudy 10 - - - -
31/12:00pm 26.9 ESE 14 17 1019.7 - 0.0 - Mostly clear 10 - - - -
31/11:30am 27.1 ESE 14 19 1020.3 - 0.0 - Partly cloudy 10 - - - -
31/11:00am 26.8 ESE 13 16 1020.5 - 0.0 - Partly cloudy 10 - - - -
31/10:30am 26.5 ESE 11 16 1021.2 - 0.0 - Partly cloudy 10 - - - -
31/10:00am 25.6 ESE 10 15 1021.3 - 0.0 - - 10 - - - -
31/09:30am 25.0 SE 9 12 1021.1 - 0.0 - - 10 - - - -
31/09:00am 24.4 SE 9 12 1021.0 - 0.4 - - 10 - - - -
31/08:30am 23.4 SSE 7 11 1021.1 - 0.4 - - 10 - - - -
31/08:00am 22.0 SSE 6 10 1021.1 - 0.4 - - 10 - - - -
31/07:30am 21.0 S 6 8 1020.9 - 0.4 - Partly cloudy 10 - - - -
31/07:00am 20.3 S 5 8 1020.2 - 0.4 - Partly cloudy 10 - - - -
31/06:30am 20.1 S 7 9 1019.9 - 0.4 - Partly cloudy 10 - - - -
31/06:00am 20.0 SSE 5 6 1019.7 - 0.4 Drizzle Cloudy 10 - - - -
31/05:30am 19.9 SSE 6 9 1019.9 - 0.2 - Partly cloudy 10 - - - -
31/05:00am 20.3 SE 7 9 1019.6 - 0.2 - Partly cloudy 9 - - - -
31/04:33am 20.0 SE 7 10 1019.6 - 0.0 - Partly cloudy 7 - - - -
31/04:30am 20.0 SE 8 10 1019.6 - 0.0 - Partly cloudy 9 - - - -
31/04:22am 20.2 SE 7 10 1019.6 - 0.0 - Partly cloudy 5 - - - -
31/04:00am 20.2 E 5 6 1019.8 - 0.0 - Partly cloudy 10 - - - -
31/03:30am 20.2 S 6 9 1019.5 - 0.0 - Partly cloudy 10 - - - -
31/03:00am 20.2 SSE 5 6 1019.5 - 0.0 - Mostly cloudy 10 - - - -
31/02:30am 20.5 SSE 6 9 1019.8 - 0.0 - Partly cloudy 10 - - - -
31/02:00am 19.9 S 6 9 1020.1 - 0.0 - Partly cloudy 10 - - - -
31/01:30am 19.7 S 6 9 1020.2 - 0.0 - - 10 - - - -
31/01:00am 19.7 S 7 9 1020.4 - 0.0 - - 10 - - - -
31/12:30am 19.9 SSE 5 7 1020.7 - 0.0 - Partly cloudy 10 - - - -
31/12:00am 20.2 S 6 8 1021.1 - 0.0 - - 10 - - - -
 
Date/Time
EST
Temp

°C
Wind Pressure Rain
since 9am
mm
Weather Cloud Vis
km
Sea
Height
m
Swell
Dir
 
Speed
knots
Gust
knots
hPa Trend Height
m
Period
s
Dir
30/11:30pm 20.1 SSE 7 10 1021.0 - 0.0 - Partly cloudy 10 - - - -
30/11:00pm 20.0 SE 7 8 1021.1 - 0.0 - - 10 - - - -
30/10:30pm 20.6 SSE 5 8 1021.6 - 0.0 - - 10 - - - -
30/10:00pm 20.8 SSE 5 8 1021.9 - 0.0 - - 10 - - - -
30/09:30pm 21.1 SSE 7 9 1021.8 - 0.0 - - 10 - - - -
30/09:00pm 21.2 SSE 6 9 1022.0 - 0.0 - Mostly clear 10 - - - -
30/08:30pm 21.5 SSE 7 12 1021.8 - 0.0 - - 10 - - - -
30/08:00pm 21.8 SSE 6 8 1021.5 - 0.0 - - 10 - - - -
30/07:30pm 22.3 SE 7 9 1021.0 - 0.0 - - 10 - - - -
30/07:00pm 22.7 ESE 7 10 1020.8 - 0.0 - - 10 - - - -
30/06:30pm 23.8 SE 8 10 1020.4 - 0.0 - - 10 - - - -
30/06:00pm 24.5 ESE 9 10 1020.1 - 0.0 - - 10 - - - -
30/05:30pm 25.6 ESE 11 15 1019.7 - 0.0 - - 10 - - - -
30/05:00pm 26.5 ESE 13 18 1019.5 - 0.0 - - 10 - - - -
30/04:30pm 27.1 E 13 18 1019.3 - 0.0 - - 10 - - - -
30/04:00pm 28.1 ESE 12 19 1019.1 - 0.0 - Partly cloudy 10 - - - -
30/03:30pm 28.0 E 14 18 1019.0 - 0.0 - - 10 - - - -
30/03:00pm 28.3 E 13 20 1018.7 - 0.0 - - 10 - - - -
30/02:30pm 27.4 E 13 18 1018.9 - 0.0 - Partly cloudy 10 - - - -
30/02:00pm 29.0 E 12 18 1019.1 - 0.0 - - 10 - - - -
30/01:30pm 28.8 SE 13 17 1019.6 - 0.0 - Partly cloudy 10 - - - -
30/01:00pm 28.7 E 11 16 1020.0 - 0.0 - Partly cloudy 10 - - - -
30/12:30pm 28.1 E 11 16 1020.3 - 0.0 - Partly cloudy 10 - - - -
30/12:00pm 28.8 ESE 12 18 1021.0 - 0.0 - Mostly clear 10 - - - -
30/11:30am 27.8 ESE 11 17 1021.6 - 0.0 - Partly cloudy 10 - - - -
30/11:00am 27.8 ESE 10 16 1022.0 - 0.0 - Partly cloudy 10 - - - -
30/10:30am 28.4 E 12 16 1022.4 - 0.0 - Partly cloudy 10 - - - -
30/10:00am 28.0 ESE 12 17 1022.4 - 0.0 - Partly cloudy 10 - - - -
30/09:30am 26.4 ESE 12 16 1022.6 - 0.0 - Partly cloudy 10 - - - -
30/09:00am 25.9 SE 10 14 1022.5 - 0.0 - - 10 - - - -
30/08:30am 24.7 SE 9 13 1022.4 - 0.0 - - 10 - - - -
30/08:00am 22.9 SSE 7 10 1022.2 - 0.0 - Partly cloudy 10 - - - -
30/07:30am 21.1 S 7 9 1021.8 - 0.0 - - 10 - - - -
30/07:00am 19.6 S 7 9 1021.4 - 0.0 - - 10 - - - -
30/06:30am 18.4 S 6 8 1020.9 - 0.0 - - 10 - - - -
30/06:00am 18.3 S 7 10 1020.8 - 0.0 - - 10 - - - -
30/05:30am 18.5 S 6 9 1020.7 - 0.0 - Partly cloudy 10 - - - -
30/05:00am 18.5 S 7 8 1020.4 - 0.0 - - 10 - - - -
30/04:30am 18.4 S 5 7 1020.0 - 0.0 - - 10 - - - -
30/04:00am 18.6 S 6 8 1019.8 - 0.0 - - 10 - - - -
30/03:30am 18.7 S 6 7 1019.8 - 0.0 - - 10 - - - -
30/03:00am 19.0 S 7 9 1020.1 - 0.0 - - 10 - - - -
30/02:30am 19.0 SSE 6 9 1020.1 - 0.0 - - 10 - - - -
30/02:00am 19.1 SSE 6 9 1020.3 - 0.0 - Partly cloudy 10 - - - -
30/01:30am 19.3 SSE 6 9 1020.9 - 0.0 - Partly cloudy 10 - - - -
30/01:00am 19.3 S 7 8 1021.3 - 0.0 - - 10 - - - -
30/12:30am 19.5 S 7 9 1021.5 - 0.0 - - 10 - - - -
30/12:00am 19.8 SSE 5 7 1021.5 - 0.0 - - 10 - - - -
 
Date/Time
EST
Temp

°C
Wind Pressure Rain
since 9am
mm
Weather Cloud Vis
km
Sea
Height
m
Swell
Dir
 
Speed
knots
Gust
knots
hPa Trend Height
m
Period
s
Dir
29/11:30pm 20.2 S 7 9 1021.6 - 0.0 - - 10 - - - -
29/11:00pm 20.4 S 8 11 1021.7 - 0.0 - - 10 - - - -
29/10:30pm 20.7 SSE 6 9 1021.5 - 0.0 - - 10 - - - -
29/10:00pm 21.0 SSE 7 9 1021.5 - 0.0 - - 10 - - - -
29/09:30pm 21.0 SSE 6 8 1021.7 - 0.0 - - 10 - - - -
29/09:00pm 20.7 SE 6 7 1021.9 - 0.0 - Mostly cloudy 10 - - - -
29/08:30pm 21.1 SE 6 7 1021.9 - 0.0 - Partly cloudy 10 - - - -
29/08:00pm 21.8 SSE 5 8 1021.7 - 0.0 - Partly cloudy 10 - - - -
29/07:30pm 22.2 SSE 6 8 1021.4 - 0.0 - - 10 - - - -
29/07:00pm 22.6 SE 6 8 1021.3 - 0.0 - - 10 - - - -
29/06:30pm 23.6 ESE 8 10 1021.0 - 0.0 - - 10 - - - -
29/06:00pm 24.3 ESE 9 11 1020.4 - 0.0 - Mostly clear 10 - - - -
29/05:30pm 25.3 ESE 10 13 1020.1 - 0.0 - - 10 - - - -
29/05:00pm 26.1 ESE 12 15 1019.9 - 0.0 - - 10 - - - -
29/04:30pm 26.5 ESE 13 17 1019.7 - 0.0 - Partly cloudy 10 - - - -
29/04:00pm 26.9 ESE 14 18 1019.7 - 0.0 - Partly cloudy 10 - - - -
29/03:30pm 27.1 ESE 13 17 1019.5 - 0.0 - Partly cloudy 10 - - - -
29/03:00pm 27.2 ESE 15 19 1019.6 - 0.0 - Partly cloudy 10 - - - -
29/02:30pm 27.6 ESE 14 18 1019.7 - 0.0 - Partly cloudy 10 - - - -
29/02:00pm 27.9 ESE 15 20 1019.8 - 0.0 - Partly cloudy 10 - - - -
29/01:30pm 28.4 ESE 15 20 1020.0 - 0.0 - Partly cloudy 10 - - - -
29/01:00pm 28.8 ESE 15 19 1020.4 - 0.0 - Partly cloudy 10 - - - -
29/12:30pm 28.3 ESE 15 21 1020.8 - 0.0 - - 10 - - - -
29/12:00pm 27.9 ESE 15 21 1021.1 - 0.0 - Mostly clear 10 - - - -
29/11:30am 27.5 ESE 15 20 1021.4 - 0.0 - Partly cloudy 10 - - - -
29/11:00am 27.1 ESE 16 21 1021.7 - 0.0 - Partly cloudy 10 - - - -
29/10:30am 27.1 ESE 14 18 1021.9 - 0.0 - Partly cloudy 10 - - - -
29/10:00am 26.7 ESE 15 19 1021.9 - 0.0 - Partly cloudy 10 - - - -
29/09:30am 26.9 ESE 16 22 1022.0 - 0.0 - Partly cloudy 10 - - - -
29/09:00am 26.5 ESE 13 16 1021.9 - 1.2 - Partly cloudy 10 - - - -
29/08:30am 25.0 SE 10 13 1021.6 - 1.2 - Cloudy 10 - - - -
29/08:00am 24.5 SSE 9 13 1021.1 - 1.2 - Partly cloudy 10 - - - -
29/07:30am 23.3 SSE 8 11 1020.7 - 1.2 - Partly cloudy 10 - - - -
29/07:00am 22.4 SSE 7 10 1020.0 - 1.2 - Partly cloudy 10 - - - -
29/06:30am 22.2 SSE 8 12 1019.7 - 1.2 - Partly cloudy 10 - - - -
29/06:00am 22.2 S 6 11 1019.4 - 1.2 Recent precip. Cloudy 10 - - - -
29/05:30am 22.3 S 5 8 1018.9 - 1.0 - Partly cloudy 10 - - - -
29/05:00am 22.4 SSE 7 9 1018.5 - 1.0 - Partly cloudy 10 - - - -
29/04:30am 22.5 S 7 10 1018.1 - 1.0 - Partly cloudy 10 - - - -

Other Formats:

Comma delimited format used in spreadsheet applications
http://www.bom.gov.au/fwo/IDQ60701/IDQ60701.94387.axf

JavaScript Object Notation format (JSON) in row-major order
http://www.bom.gov.au/fwo/IDQ60701/IDQ60701.94387.json